createdAt,value
2023-01-03T00:02:53.650Z,101008.75
2023-01-03T00:06:01.035Z,100999.00
2023-01-03T00:09:06.603Z,101003.86
2023-01-03T00:12:31.275Z,100996.73
2023-01-03T00:15:30.869Z,100993.05
2023-01-03T00:18:23.362Z,100988.36
2023-01-03T00:21:29.132Z,100988.43
2023-01-03T00:24:35.117Z,100976.41
2023-01-03T00:27:40.612Z,100973.75
2023-01-03T00:30:46.119Z,100961.45
2023-01-03T00:33:53.614Z,100964.80
2023-01-03T00:36:59.730Z,100960.43
2023-01-03T00:40:05.964Z,100955.32
2023-01-03T00:43:30.316Z,100955.55
2023-01-03T00:46:37.086Z,100952.02
2023-01-03T00:49:42.252Z,100954.81
2023-01-03T00:52:48.815Z,100947.22
2023-01-03T00:55:55.246Z,100939.27
2023-01-03T00:59:00.950Z,100932.95
2023-01-03T01:02:11.729Z,100929.63
2023-01-03T01:05:18.054Z,100922.98
2023-01-03T01:08:25.090Z,100920.72
2023-01-03T01:11:31.587Z,100919.63
2023-01-03T01:14:39.763Z,100917.25
2023-01-03T01:17:45.567Z,100910.99
2023-01-03T01:20:53.489Z,100909.50
2023-01-03T01:23:58.691Z,100905.75
2023-01-03T01:27:05.671Z,100900.87
2023-01-03T01:30:04.146Z,100902.83
2023-01-03T01:33:10.312Z,100908.88
2023-01-03T01:36:24.932Z,100906.80
2023-01-03T01:39:34.477Z,100910.88
2023-01-03T01:42:57.215Z,100900.07
2023-01-03T01:46:03.368Z,100903.79
2023-01-03T01:49:18.249Z,100891.21
2023-01-03T01:52:24.504Z,100894.33
2023-01-03T01:55:36.791Z,100885.01
2023-01-03T01:58:47.320Z,100882.68
2023-01-03T02:01:53.332Z,100874.86
2023-01-03T02:04:58.430Z,100873.67
2023-01-03T02:08:05.944Z,100871.30
2023-01-03T02:11:33.333Z,100876.30
2023-01-03T02:14:51.972Z,100871.01
2023-01-03T02:18:08.950Z,100862.89
2023-01-03T02:21:31.010Z,100855.44
2023-01-03T02:25:18.798Z,100850.80
2023-01-03T02:28:44.153Z,100850.40
2023-01-03T02:32:13.615Z,100856.66
2023-01-03T02:35:35.548Z,100849.95
2023-01-03T02:39:01.835Z,100838.73
2023-01-03T02:42:38.327Z,100836.02
2023-01-03T02:45:56.025Z,100835.01
2023-01-03T02:49:24.026Z,100833.20
2023-01-03T02:52:39.442Z,100829.98
2023-01-03T02:55:46.466Z,100827.21
2023-01-03T02:58:52.664Z,100831.15
2023-01-03T03:01:58.536Z,100835.70
2023-01-03T03:05:07.201Z,100833.90
2023-01-03T03:08:13.112Z,100836.08
2023-01-03T03:11:36.547Z,100835.05
2023-01-03T03:14:57.775Z,100828.64
2023-01-03T03:18:06.201Z,100830.77
2023-01-03T03:21:29.116Z,100823.37
2023-01-03T03:24:58.776Z,100820.71
2023-01-03T03:28:24.074Z,100828.45
2023-01-03T03:31:48.177Z,100832.55
2023-01-03T03:34:54.890Z,100830.10
2023-01-03T03:38:02.338Z,100826.14
2023-01-03T03:41:52.075Z,100817.17
2023-01-03T03:45:08.150Z,100819.22
2023-01-03T03:48:24.576Z,100813.19
2023-01-03T03:51:30.015Z,100815.45
2023-01-03T03:54:35.761Z,100813.55
2023-01-03T03:57:57.420Z,100811.59
2023-01-03T04:01:03.611Z,100808.47
2023-01-03T04:04:10.244Z,100802.69
2023-01-03T04:07:15.774Z,100797.69
2023-01-03T04:10:24.646Z,100798.13
2023-01-03T04:13:30.821Z,100798.92
2023-01-03T04:16:35.969Z,100797.30
2023-01-03T04:19:40.925Z,100784.70
2023-01-03T04:22:46.875Z,100796.61
2023-01-03T04:25:52.900Z,100791.73
2023-01-03T04:28:58.955Z,100783.17
2023-01-03T04:32:04.974Z,100786.54
2023-01-03T04:35:11.151Z,100782.72
2023-01-03T04:38:17.734Z,100779.55
2023-01-03T04:41:24.056Z,100773.40
2023-01-03T04:44:30.361Z,100767.23
2023-01-03T04:47:35.856Z,100764.42
2023-01-03T04:50:41.639Z,100766.47
2023-01-03T04:53:46.909Z,100756.59
2023-01-03T04:56:53.342Z,100759.31
2023-01-03T05:00:00.580Z,100758.42
2023-01-03T05:03:07.294Z,100747.31
2023-01-03T05:06:17.104Z,100756.05
2023-01-03T05:09:23.005Z,100751.81
2023-01-03T05:12:28.322Z,100745.28
2023-01-03T05:15:33.318Z,100745.22
2023-01-03T05:18:39.186Z,100738.58
2023-01-03T05:22:03.138Z,100737.93
2023-01-03T05:25:26.752Z,100736.69
2023-01-03T05:28:36.423Z,100735.59
2023-01-03T05:31:41.586Z,100731.08
2023-01-03T05:34:47.630Z,100741.02
2023-01-03T05:37:53.810Z,100734.73
2023-01-03T05:41:00.963Z,100736.39
2023-01-03T05:44:05.680Z,100731.36
2023-01-03T05:47:12.211Z,100735.59
2023-01-03T05:50:17.521Z,100737.68
2023-01-03T05:53:25.209Z,100732.52
2023-01-03T05:56:30.895Z,100739.91
2023-01-03T05:59:36.641Z,100732.37
2023-01-03T06:02:42.967Z,100739.64
2023-01-03T06:05:50.325Z,100734.50
2023-01-03T06:08:55.454Z,100736.57
2023-01-03T06:12:02.571Z,100734.06
2023-01-03T06:15:08.608Z,100726.65
2023-01-03T06:18:14.982Z,100726.97
2023-01-03T06:21:20.151Z,100728.39
2023-01-03T06:24:26.019Z,100734.05
2023-01-03T06:27:31.955Z,100731.19
2023-01-03T06:30:38.282Z,100733.88
2023-01-03T06:33:45.133Z,100730.52
2023-01-03T06:36:50.483Z,100730.55
2023-01-03T06:39:56.719Z,100725.62
2023-01-03T06:42:56.537Z,100724.17
2023-01-03T06:46:06.728Z,100724.73
2023-01-03T06:49:30.470Z,100722.95
2023-01-03T06:52:53.305Z,100717.88
2023-01-03T06:55:59.614Z,100721.13
2023-01-03T06:59:04.575Z,100724.11
2023-01-03T07:02:11.100Z,100729.77
2023-01-03T07:05:17.195Z,100724.16
2023-01-03T07:08:22.947Z,100720.95
2023-01-03T07:11:29.977Z,100718.36
2023-01-03T07:14:35.939Z,100718.13
2023-01-03T07:17:41.029Z,100706.56
2023-01-03T07:20:46.077Z,100707.16
2023-01-03T07:23:51.936Z,100708.94
2023-01-03T07:27:17.140Z,100701.91
2023-01-03T07:30:23.417Z,100697.28
2023-01-03T07:33:29.023Z,100696.05
2023-01-03T07:36:35.393Z,100690.48
2023-01-03T07:39:40.285Z,100678.94
2023-01-03T07:43:04.993Z,100684.17
2023-01-03T07:46:09.698Z,100680.20
2023-01-03T07:49:15.122Z,100682.43
2023-01-03T07:52:20.995Z,100678.23
2023-01-03T07:55:27.008Z,100670.05
2023-01-03T07:58:33.096Z,100669.41
2023-01-03T08:01:39.692Z,100667.00
2023-01-03T08:04:38.908Z,100660.70
2023-01-03T08:07:44.749Z,100656.05
2023-01-03T08:11:08.250Z,100659.75
2023-01-03T08:14:14.304Z,100654.88
2023-01-03T08:17:20.197Z,100644.66
2023-01-03T08:20:26.110Z,100651.92
2023-01-03T08:23:32.275Z,100636.00
2023-01-03T08:26:39.426Z,100631.35
2023-01-03T08:29:45.289Z,100625.09
2023-01-03T08:32:51.736Z,100617.72
2023-01-03T08:36:01.965Z,100607.98
2023-01-03T08:39:11.549Z,100604.55
2023-01-03T08:42:19.189Z,100584.02
2023-01-03T08:45:26.906Z,100591.09
2023-01-03T08:48:33.737Z,100582.27
2023-01-03T08:51:38.489Z,100581.48
2023-01-03T08:54:46.245Z,100568.00
2023-01-03T08:57:52.863Z,100562.22
2023-01-03T09:04:24.096Z,100548.92
2023-01-03T09:07:32.089Z,100551.69
2023-01-03T09:10:42.199Z,100548.36
2023-01-03T09:13:45.419Z,100553.85
2023-01-03T09:16:50.564Z,100541.78
2023-01-03T09:19:55.851Z,100532.61
2023-01-03T09:23:01.477Z,100531.02
2023-01-03T09:26:07.643Z,100515.41
2023-01-03T09:29:12.780Z,100513.73
2023-01-03T09:32:18.903Z,100506.47
2023-01-03T09:35:24.610Z,100503.33
2023-01-03T09:38:30.533Z,100505.05
2023-01-03T09:41:42.231Z,100498.91
2023-01-03T09:44:48.729Z,100490.38
2023-01-03T09:47:54.268Z,100497.73
2023-01-03T09:51:21.241Z,100499.92
2023-01-03T09:54:27.736Z,100492.88
2023-01-03T09:58:00.135Z,100492.58
2023-01-03T10:01:23.113Z,100480.63
2023-01-03T10:05:01.439Z,100476.19
2023-01-03T10:08:34.483Z,100472.07
2023-01-03T10:11:48.545Z,100466.29
2023-01-03T10:15:19.042Z,100449.89
2023-01-03T10:18:36.081Z,100452.48
2023-01-03T10:22:27.241Z,100442.06
2023-01-03T10:25:36.736Z,100435.38
2023-01-03T10:28:47.514Z,100428.73
2023-01-03T10:32:26.024Z,100429.21
2023-01-03T10:35:45.626Z,100428.69
2023-01-03T10:38:53.439Z,100419.97
2023-01-03T10:42:01.072Z,100437.55
2023-01-03T10:45:26.333Z,100432.98
2023-01-03T10:48:36.244Z,100423.41
2023-01-03T10:51:58.841Z,100425.25
2023-01-03T10:55:10.487Z,100418.02
2023-01-03T10:58:20.109Z,100419.77
2023-01-03T11:01:35.686Z,100413.96
2023-01-03T11:04:43.086Z,100407.66
2023-01-03T11:07:48.946Z,100407.13
2023-01-03T11:11:13.483Z,100414.11
2023-01-03T11:14:37.114Z,100408.97
2023-01-03T11:17:43.190Z,100405.70
2023-01-03T11:21:30.061Z,100398.52
2023-01-03T11:24:43.366Z,100404.13
2023-01-03T11:28:24.429Z,100401.23
2023-01-03T11:31:55.288Z,100399.47
2023-01-03T11:35:56.821Z,100395.54
2023-01-03T11:39:24.686Z,100386.93
2023-01-03T11:42:54.383Z,100387.78
2023-01-03T11:46:07.871Z,100391.38
2023-01-03T11:49:44.042Z,100385.22
2023-01-03T11:53:06.741Z,100386.88
2023-01-03T11:56:32.989Z,100389.06
2023-01-03T12:00:05.918Z,100382.87
2023-01-03T12:03:31.614Z,100393.16
2023-01-03T12:07:37.020Z,100388.38
2023-01-03T12:10:22.580Z,100394.56
2023-01-03T12:13:38.077Z,100384.38
2023-01-03T12:17:01.300Z,100386.48
2023-01-03T12:20:18.247Z,100392.65
2023-01-03T12:23:48.900Z,100394.02
2023-01-03T12:26:57.319Z,100402.58
2023-01-03T12:30:29.511Z,100404.49
2023-01-03T12:34:04.262Z,100407.41
2023-01-03T12:37:34.192Z,100396.37
2023-01-03T12:41:07.959Z,100392.27
2023-01-03T12:44:27.075Z,100395.02
2023-01-03T12:47:55.462Z,100383.25
2023-01-03T12:51:06.887Z,100387.57
2023-01-03T12:54:43.272Z,100386.92
2023-01-03T12:58:08.504Z,100385.39
2023-01-03T13:01:22.615Z,100398.60
2023-01-03T13:04:34.278Z,100398.98
2023-01-03T13:07:44.169Z,100402.90
2023-01-03T13:10:52.439Z,100403.60
2023-01-03T13:14:19.812Z,100406.84
2023-01-03T13:17:32.666Z,100403.08
2023-01-03T13:20:50.257Z,100409.58
2023-01-03T13:24:14.468Z,100401.90
2023-01-03T13:27:37.707Z,100403.93
2023-01-03T13:30:45.402Z,100408.53
2023-01-03T13:34:00.153Z,100409.55
2023-01-03T13:37:24.976Z,100412.80
2023-01-03T13:41:16.586Z,100405.59
2023-01-03T13:43:52.227Z,100423.19
2023-01-03T13:46:58.933Z,100429.67
2023-01-03T13:50:04.956Z,100425.20
2023-01-03T13:53:25.428Z,100433.33
2023-01-03T13:56:31.176Z,100431.06
2023-01-03T13:59:50.947Z,100430.86
2023-01-03T14:03:16.984Z,100426.44
2023-01-03T14:06:56.372Z,100431.38
2023-01-03T14:10:15.106Z,100436.09
2023-01-03T14:13:29.772Z,100432.44
2023-01-03T14:16:43.228Z,100427.25
2023-01-03T14:19:54.258Z,100434.53
2023-01-03T14:23:11.625Z,100431.75
2023-01-03T14:26:08.593Z,100433.23
2023-01-03T14:29:19.322Z,100434.63
2023-01-03T14:32:44.522Z,100437.58
2023-01-03T14:35:55.891Z,100445.94
2023-01-03T14:39:06.661Z,100429.72
2023-01-03T14:42:10.355Z,100434.28
2023-01-03T14:45:18.348Z,100439.83
2023-01-03T14:48:28.259Z,100444.27
2023-01-03T14:51:34.808Z,100451.05
2023-01-03T14:54:40.962Z,100447.20
2023-01-03T14:57:51.881Z,100450.71
2023-01-03T15:00:59.657Z,100447.02
2023-01-03T15:04:05.047Z,100450.73
2023-01-03T15:07:16.836Z,100441.58
2023-01-03T15:10:28.466Z,100435.75
2023-01-03T15:13:47.013Z,100442.53
2023-01-03T15:16:55.617Z,100449.55
2023-01-03T15:20:09.300Z,100447.98
2023-01-03T15:23:15.241Z,100450.15
2023-01-03T15:26:22.110Z,100460.41
2023-01-03T15:29:36.895Z,100464.02
2023-01-03T15:32:42.166Z,100481.78
2023-01-03T15:35:53.690Z,100482.84
2023-01-03T15:39:00.348Z,100483.59
2023-01-03T15:42:50.209Z,100489.22
2023-01-03T15:45:40.869Z,100486.53
2023-01-03T15:48:48.156Z,100494.84
2023-01-03T15:51:54.727Z,100488.16
2023-01-03T15:55:00.550Z,100491.03
2023-01-03T15:58:06.085Z,100498.96
2023-01-03T16:01:11.902Z,100504.03
2023-01-03T16:04:19.327Z,100514.18
2023-01-03T16:07:25.836Z,100505.58
2023-01-03T16:10:31.724Z,100521.77
2023-01-03T16:13:38.844Z,100517.75
2023-01-03T16:16:48.056Z,100529.05
2023-01-03T16:19:53.617Z,100532.32
2023-01-03T16:23:03.351Z,100532.96
2023-01-03T16:26:09.778Z,100536.41
2023-01-03T16:29:15.603Z,100542.63
2023-01-03T16:32:21.361Z,100538.45
2023-01-03T16:35:34.017Z,100540.41
2023-01-03T16:38:39.815Z,100536.40
2023-01-03T16:41:45.468Z,100537.33
2023-01-03T16:44:52.263Z,100535.50
2023-01-03T16:47:57.595Z,100540.78
2023-01-03T16:51:04.846Z,100535.50
2023-01-03T16:54:12.019Z,100534.82
2023-01-03T16:57:17.447Z,100542.32
2023-01-03T17:00:31.617Z,100540.38
2023-01-03T17:03:41.754Z,100542.70
2023-01-03T17:06:46.049Z,100544.65
2023-01-03T17:09:51.443Z,100552.36
2023-01-03T17:12:57.427Z,100547.98
2023-01-03T17:16:03.965Z,100550.03
2023-01-03T17:19:09.385Z,100551.94
2023-01-03T17:22:16.813Z,100544.86
2023-01-03T17:25:24.379Z,100549.45
2023-01-03T17:28:29.939Z,100550.34
2023-01-03T17:31:38.085Z,100548.47
2023-01-03T17:34:45.410Z,100547.66
2023-01-03T17:38:23.991Z,100548.30
2023-01-03T17:41:04.273Z,100549.70
2023-01-03T17:44:09.817Z,100547.20
2023-01-03T17:47:54.324Z,100541.14
2023-01-03T17:51:00.317Z,100542.30
2023-01-03T17:54:05.709Z,100552.02
2023-01-03T17:57:14.223Z,100552.59
2023-01-03T18:00:34.405Z,100560.13
2023-01-03T18:03:40.450Z,100560.03
2023-01-03T18:06:47.773Z,100562.54
2023-01-03T18:09:53.195Z,100560.61
2023-01-03T18:12:58.258Z,100558.19
2023-01-03T18:16:03.430Z,100563.27
2023-01-03T18:19:08.253Z,100561.73
2023-01-03T18:22:13.584Z,100564.36
2023-01-03T18:25:23.187Z,100565.72
2023-01-03T18:28:28.585Z,100566.71
2023-01-03T18:31:34.759Z,100568.63
2023-01-03T18:34:40.137Z,100558.26
2023-01-03T18:37:48.889Z,100561.05
2023-01-03T18:41:00.703Z,100560.03
2023-01-03T18:44:03.376Z,100558.73
2023-01-03T18:47:09.525Z,100561.41
2023-01-03T18:50:15.771Z,100561.23
2023-01-03T18:53:22.775Z,100566.92
2023-01-03T18:56:41.885Z,100576.65
2023-01-03T18:59:47.208Z,100573.75
2023-01-03T19:02:53.845Z,100573.27
2023-01-03T19:06:02.627Z,100573.11
2023-01-03T19:09:08.876Z,100581.77
2023-01-03T19:12:15.692Z,100579.77
2023-01-03T19:15:41.523Z,100582.50
2023-01-03T19:18:47.512Z,100579.72
2023-01-03T19:21:55.823Z,100579.32
2023-01-03T19:25:01.251Z,100582.13
2023-01-03T19:28:06.800Z,100589.52
2023-01-03T19:31:11.918Z,100582.95
2023-01-03T19:34:18.590Z,100579.20
2023-01-03T19:37:24.809Z,100584.14
2023-01-03T19:40:30.900Z,100583.56
2023-01-03T19:43:36.788Z,100583.89
2023-01-03T19:46:42.555Z,100582.66
2023-01-03T19:49:50.392Z,100581.89
2023-01-03T19:52:56.961Z,100584.83
2023-01-03T19:56:03.828Z,100579.50
2023-01-03T19:59:09.924Z,100580.56
2023-01-03T20:02:30.939Z,100582.73
2023-01-03T20:05:37.844Z,100583.59
2023-01-03T20:08:43.075Z,100583.08
2023-01-03T20:11:49.082Z,100585.30
2023-01-03T20:14:55.065Z,100585.97
2023-01-03T20:18:00.804Z,100580.14
2023-01-03T20:21:09.340Z,100580.86
2023-01-03T20:24:16.419Z,100590.06
2023-01-03T20:27:27.246Z,100590.91
2023-01-03T20:30:33.908Z,100588.48
2023-01-03T20:33:40.501Z,100579.63
2023-01-03T20:36:58.518Z,100578.67
2023-01-03T20:40:03.808Z,100583.52
2023-01-03T20:43:10.822Z,100586.41
2023-01-03T20:46:17.842Z,100590.44
2023-01-03T20:49:33.986Z,100587.53
2023-01-03T20:52:40.237Z,100594.00
2023-01-03T20:55:45.344Z,100597.84
2023-01-03T20:58:51.817Z,100595.08
2023-01-03T21:01:59.605Z,100600.81
2023-01-03T21:05:05.356Z,100601.23
2023-01-03T21:08:28.732Z,100604.00
2023-01-03T21:11:40.433Z,100607.33
2023-01-03T21:14:46.314Z,100613.64
2023-01-03T21:17:52.691Z,100613.90
2023-01-03T21:20:59.217Z,100616.02
2023-01-03T21:24:06.326Z,100612.75
2023-01-03T21:27:11.919Z,100608.73
2023-01-03T21:30:17.277Z,100618.02
2023-01-03T21:33:28.704Z,100614.59
2023-01-03T21:36:47.662Z,100604.22
2023-01-03T21:39:53.175Z,100602.31
2023-01-03T21:43:12.307Z,100598.70
2023-01-03T21:46:21.331Z,100601.46
2023-01-03T21:49:26.821Z,100595.02
2023-01-03T21:52:35.280Z,100598.76
2023-01-03T21:55:41.487Z,100602.08
2023-01-03T21:58:47.155Z,100598.30
2023-01-03T22:02:11.542Z,100601.70
2023-01-03T22:05:18.116Z,100603.23
2023-01-03T22:08:24.758Z,100603.70
2023-01-03T22:11:31.771Z,100608.27
2023-01-03T22:14:36.335Z,100605.03
2023-01-03T22:17:42.749Z,100600.46
2023-01-03T22:20:49.393Z,100599.11
2023-01-03T22:23:54.766Z,100595.39
2023-01-03T22:27:01.897Z,100597.22
2023-01-03T22:30:08.442Z,100594.74
2023-01-03T22:33:13.470Z,100603.41
2023-01-03T22:36:19.828Z,100591.34
2023-01-03T22:39:25.259Z,100598.05
2023-01-03T22:42:31.934Z,100600.41
2023-01-03T22:45:36.920Z,100598.11
2023-01-03T22:48:43.215Z,100596.61
2023-01-03T22:51:48.776Z,100599.81
2023-01-03T22:54:54.613Z,100596.95
2023-01-03T22:58:00.743Z,100591.64
2023-01-03T23:01:07.159Z,100602.38
2023-01-03T23:04:14.884Z,100592.41
2023-01-03T23:07:21.345Z,100600.44
2023-01-03T23:10:27.743Z,100595.01
2023-01-03T23:13:32.886Z,100597.09
2023-01-03T23:16:39.659Z,100589.52
2023-01-03T23:19:45.821Z,100588.70
2023-01-03T23:22:57.480Z,100583.20
2023-01-03T23:25:59.053Z,100581.14
2023-01-03T23:29:10.517Z,100593.70
2023-01-03T23:32:16.648Z,100589.55
2023-01-03T23:35:25.069Z,100592.77
2023-01-03T23:38:30.835Z,100589.98
2023-01-03T23:41:36.083Z,100589.72
2023-01-03T23:44:41.879Z,100592.77
2023-01-03T23:47:48.075Z,100592.66
2023-01-03T23:50:54.447Z,100597.64
2023-01-03T23:54:00.435Z,100598.25
2023-01-03T23:57:06.791Z,100597.05
